Time;durP1;ratioP1;P1;durP2;ratioP2;P2;SDS_P1;SDS_P2;PMS_P1;PMS_P2;Temp;Humidity;BMP_temperature;BMP_pressure;BME280_temperature;BME280_humidity;BME280_pressure;Samples;Min_cycle;Max_cycle;Signal;HPM_P1;HPM_P2
2022/02/15 00:01:16;;;;;;;6.10;3.42;;;;;;;5.66;83.25;97742.88;4169330;28;20715;-71
2022/02/15 00:03:17;;;;;;;6.30;3.75;;;;;;;5.62;83.25;97740.06;4168173;28;20041;-71
2022/02/15 00:05:18;;;;;;;6.97;3.47;;;;;;;5.66;83.41;97753.06;4169411;28;20264;-71
2022/02/15 00:07:18;;;;;;;10.05;3.50;;;;;;;5.62;83.88;97744.75;4168592;28;20417;-72
2022/02/15 00:09:18;;;;;;;6.63;3.70;;;;;;;5.62;83.08;97753.78;4169867;28;20084;-71
2022/02/15 00:11:19;;;;;;;5.22;3.55;;;;;;;5.55;83.90;97744.63;4169186;28;20534;-71
2022/02/15 00:13:19;;;;;;;5.07;3.38;;;;;;;5.54;84.14;97743.81;4170270;28;20052;-71
2022/02/15 00:15:20;;;;;;;5.82;3.53;;;;;;;5.52;84.19;97743.41;4173231;28;20060;-71
2022/02/15 00:17:20;;;;;;;5.40;3.30;;;;;;;5.55;83.65;97742.69;4172047;28;20139;-71
2022/02/15 00:19:20;;;;;;;6.05;3.08;;;;;;;5.55;83.46;97742.69;4172607;28;20045;-72
2022/02/15 00:21:20;;;;;;;5.45;2.97;;;;;;;5.56;83.37;97748.97;4173095;28;20041;-71
2022/02/15 00:23:21;;;;;;;4.00;3.15;;;;;;;5.56;83.14;97740.72;4172842;28;20049;-71
2022/02/15 00:25:21;;;;;;;9.85;3.70;;;;;;;5.57;83.77;97750.56;4172905;28;20537;-71
2022/02/15 00:27:22;;;;;;;10.05;3.95;;;;;;;5.61;83.53;97741.22;4172117;28;20343;-72
2022/02/15 00:29:22;;;;;;;6.35;3.22;;;;;;;5.58;83.34;97739.22;4172683;28;20041;-71
2022/02/15 00:31:22;;;;;;;5.93;3.72;;;;;;;5.55;83.05;97741.91;4172924;28;20103;-71
2022/02/15 00:33:23;;;;;;;5.75;2.90;;;;;;;5.55;83.20;97750.91;4172282;28;20053;-71
2022/02/15 00:35:23;;;;;;;6.10;3.75;;;;;;;5.50;83.73;97753.94;4172615;28;20079;-71
2022/02/15 00:37:23;;;;;;;7.97;3.42;;;;;;;5.50;83.75;97747.66;4171842;28;20107;-71
2022/02/15 00:39:24;;;;;;;8.40;3.95;;;;;;;5.47;83.86;97742.91;4172369;28;20565;-71
2022/02/15 00:41:24;;;;;;;9.30;3.38;;;;;;;5.45;84.10;97754.22;4172767;28;20053;-72
2022/02/15 00:43:24;;;;;;;6.47;3.30;;;;;;;5.49;83.84;97749.63;4172464;28;20045;-71
2022/02/15 00:45:25;;;;;;;8.77;4.25;;;;;;;5.53;83.52;97752.41;4172406;28;20052;-71
2022/02/15 00:47:26;;;;;;;5.60;3.58;;;;;;;5.52;83.89;97754.38;4171958;28;20300;-71
2022/02/15 00:49:26;;;;;;;7.28;3.83;;;;;;;5.54;83.43;97754.00;4172497;28;20075;-71
2022/02/15 00:51:27;;;;;;;7.32;3.25;;;;;;;5.56;83.31;97747.00;4172336;28;20371;-71
2022/02/15 00:53:27;;;;;;;6.40;3.47;;;;;;;5.63;82.54;97754.59;4170849;28;20049;-71
2022/02/15 00:55:27;;;;;;;9.13;4.97;;;;;;;5.62;82.87;97747.50;4172393;28;20041;-71
2022/02/15 00:57:28;;;;;;;7.28;3.65;;;;;;;5.60;82.92;97764.31;4171655;28;20148;-71
2022/02/15 00:59:28;;;;;;;7.32;4.00;;;;;;;5.60;82.74;97760.78;4172201;28;20085;-71
2022/02/15 01:01:28;;;;;;;7.55;3.22;;;;;;;5.58;82.75;97758.41;4172311;28;20037;-71
2022/02/15 01:03:29;;;;;;;6.93;3.15;;;;;;;5.60;82.65;97763.53;4171672;28;20037;-71
2022/02/15 01:05:29;;;;;;;8.85;3.58;;;;;;;5.59;82.60;97757.25;4171987;28;20467;-71
2022/02/15 01:07:30;;;;;;;6.35;3.60;;;;;;;5.57;82.31;97761.53;4171858;28;20049;-71
2022/02/15 01:09:30;;;;;;;13.68;3.22;;;;;;;5.52;81.83;97757.13;4170822;28;20051;-71
2022/02/15 01:11:31;;;;;;;6.40;3.92;;;;;;;5.51;81.94;97757.47;4172341;28;20613;-71
2022/02/15 01:13:31;;;;;;;6.00;4.30;;;;;;;5.52;81.66;97770.84;4171795;28;20438;-71
2022/02/15 01:15:32;;;;;;;4.60;3.00;;;;;;;5.54;81.11;97767.72;4172222;28;20341;-71
2022/02/15 01:17:32;;;;;;;6.00;3.05;;;;;;;5.55;80.60;97775.63;4170964;28;20045;-71
2022/02/15 01:19:33;;;;;;;7.20;3.20;;;;;;;5.56;81.20;97766.22;4170336;28;20119;-72
2022/02/15 01:21:33;;;;;;;5.10;3.20;;;;;;;5.59;80.66;97770.97;4172308;28;20424;-71
2022/02/15 01:23:33;;;;;;;5.30;3.38;;;;;;;5.59;81.22;97770.19;4171757;28;20044;-71
2022/02/15 01:25:34;;;;;;;5.10;3.40;;;;;;;5.60;81.18;97771.78;4170560;28;20053;-71
2022/02/15 01:27:34;;;;;;;2.90;2.60;;;;;;;5.60;80.49;97772.56;4171356;28;20059;-71
2022/02/15 01:29:34;;;;;;;6.55;3.30;;;;;;;5.57;80.95;97778.78;4171388;28;20045;-71
2022/02/15 01:31:34;;;;;;;6.70;3.15;;;;;;;5.59;80.79;97784.69;4171538;28;20052;-71
2022/02/15 01:33:35;;;;;;;5.32;3.80;;;;;;;5.56;81.20;97785.44;4171995;28;20048;-72
2022/02/15 01:35:35;;;;;;;6.68;3.90;;;;;;;5.52;81.72;97781.00;4172016;28;20088;-71
2022/02/15 01:37:36;;;;;;;6.90;3.38;;;;;;;5.47;82.23;97784.06;4170717;28;20171;-71
2022/02/15 01:39:36;;;;;;;4.30;3.65;;;;;;;5.43;82.30;97773.00;4171362;28;20109;-71
2022/02/15 01:41:37;;;;;;;7.80;3.47;;;;;;;5.36;82.22;97779.13;4170951;28;20098;-71
2022/02/15 01:43:39;;;;;;;9.57;3.80;;;;;;;5.38;81.93;97781.53;4170863;28;20041;-71
2022/02/15 01:45:39;;;;;;;5.72;3.50;;;;;;;5.34;82.18;97777.91;4169548;28;20055;-71
2022/02/15 01:47:39;;;;;;;6.60;3.60;;;;;;;5.32;81.88;97780.22;4170227;28;20124;-72
2022/02/15 01:49:40;;;;;;;4.32;3.38;;;;;;;5.26;82.18;97778.91;4171150;28;20045;-71
2022/02/15 01:51:40;;;;;;;5.65;3.53;;;;;;;5.28;82.24;97776.59;4170736;28;20325;-72
2022/02/15 01:53:40;;;;;;;7.03;3.60;;;;;;;5.26;82.14;97767.94;4171434;28;20053;-71
2022/02/15 01:55:41;;;;;;;5.10;3.55;;;;;;;5.24;82.34;97773.00;4171758;28;20049;-71
2022/02/15 01:57:42;;;;;;;7.63;3.67;;;;;;;5.30;81.82;97777.84;4170604;28;20049;-71
2022/02/15 01:59:44;;;;;;;4.35;3.40;;;;;;;5.26;82.51;97776.19;4171574;28;20048;-71
2022/02/15 02:01:45;;;;;;;4.63;3.60;;;;;;;5.23;82.03;97774.97;4171016;28;20051;-71
2022/02/15 02:03:45;;;;;;;4.60;3.40;;;;;;;5.20;82.18;97772.13;4171235;28;20324;-71
2022/02/15 02:05:49;;;;;;;5.13;3.30;;;;;;;5.12;83.04;97771.16;4171656;28;20412;-71
2022/02/15 02:07:49;;;;;;;4.93;3.63;;;;;;;5.08;83.55;97779.34;4169566;28;20127;-71
2022/02/15 02:09:49;;;;;;;5.60;3.67;;;;;;;5.06;83.54;97765.19;4171640;28;20075;-71
2022/02/15 02:11:50;;;;;;;5.35;3.30;;;;;;;5.06;83.29;97778.91;4171046;28;20044;-71
2022/02/15 02:13:50;;;;;;;6.30;3.58;;;;;;;5.01;83.17;97775.63;4171137;28;20166;-71
2022/02/15 02:15:51;;;;;;;6.95;3.80;;;;;;;5.02;83.06;97778.03;4171054;28;20327;-72
2022/02/15 02:17:52;;;;;;;5.30;3.08;;;;;;;4.98;82.75;97773.63;4170389;28;20352;-71
2022/02/15 02:19:54;;;;;;;8.27;3.45;;;;;;;4.98;83.27;97770.88;4171278;28;20045;-71
2022/02/15 02:21:55;;;;;;;3.60;3.20;;;;;;;4.93;83.15;97771.16;4169732;28;20045;-71
2022/02/15 02:23:55;;;;;;;5.90;3.17;;;;;;;4.90;83.58;97775.41;4171266;28;20102;-71
2022/02/15 02:25:56;;;;;;;5.88;2.95;;;;;;;4.86;83.40;97780.00;4170739;28;20552;-71
2022/02/15 02:27:59;;;;;;;4.22;3.20;;;;;;;4.78;83.69;97775.50;4170100;28;20137;-71
2022/02/15 02:30:00;;;;;;;6.80;3.58;;;;;;;4.76;84.28;97767.66;4170527;28;20576;-71
2022/02/15 02:32:00;;;;;;;4.13;3.03;;;;;;;4.74;84.43;97771.91;4170716;28;20045;-72
2022/02/15 02:34:01;;;;;;;4.97;3.42;;;;;;;4.71;84.34;97765.19;4170581;28;20037;-72
2022/02/15 02:36:01;;;;;;;5.75;3.08;;;;;;;4.73;84.69;97768.38;4170529;28;20040;-71
2022/02/15 02:38:02;;;;;;;4.28;3.00;;;;;;;4.71;84.16;97773.41;4170057;28;20037;-72
2022/02/15 02:40:06;;;;;;;7.68;3.28;;;;;;;4.69;84.67;97772.19;4170701;28;20037;-71
2022/02/15 02:42:06;;;;;;;5.32;3.17;;;;;;;4.64;84.69;97767.00;4170659;28;20105;-72
2022/02/15 02:44:06;;;;;;;4.85;3.00;;;;;;;4.65;85.19;97777.59;4170181;28;20127;-72
2022/02/15 02:46:07;;;;;;;7.72;3.47;;;;;;;4.68;84.56;97776.06;4170824;28;20040;-71
2022/02/15 02:48:07;;;;;;;5.70;3.10;;;;;;;4.69;84.72;97766.69;4169886;28;20036;-71
2022/02/15 02:50:08;;;;;;;6.28;3.20;;;;;;;4.68;85.03;97767.84;4170927;28;20036;-71
2022/02/15 02:52:08;;;;;;;3.83;3.05;;;;;;;4.68;84.28;97781.56;4170432;28;20120;-72
2022/02/15 02:54:08;;;;;;;3.63;2.85;;;;;;;4.65;84.63;97768.56;4170635;28;20064;-71
2022/02/15 02:56:09;;;;;;;3.97;3.00;;;;;;;4.63;84.65;97777.13;4170353;28;20211;-71
2022/02/15 02:58:10;;;;;;;5.82;3.17;;;;;;;4.57;84.69;97778.56;4169478;28;20040;-71
2022/02/15 03:00:14;;;;;;;7.20;3.15;;;;;;;4.56;84.61;97789.88;4169991;28;20436;-71
2022/02/15 03:02:16;;;;;;;4.72;3.75;;;;;;;4.47;84.90;97787.34;4170437;28;20037;-71
2022/02/15 03:04:16;;;;;;;5.18;3.08;;;;;;;4.47;84.90;97798.28;4170607;28;20037;-71
2022/02/15 03:06:17;;;;;;;6.30;3.20;;;;;;;4.41;85.30;97791.47;4170257;28;20039;-71
2022/02/15 03:08:17;;;;;;;7.05;3.53;;;;;;;4.39;84.84;97799.25;4169712;28;20040;-71
2022/02/15 03:10:18;;;;;;;4.05;3.25;;;;;;;4.34;85.44;97797.56;4170176;28;20020;-71
2022/02/15 03:12:18;;;;;;;7.22;3.45;;;;;;;4.31;85.29;97797.50;4170274;28;20063;-71
2022/02/15 03:14:18;;;;;;;5.13;3.28;;;;;;;4.29;85.74;97794.28;4170154;28;20392;-71
2022/02/15 03:16:19;;;;;;;5.20;3.20;;;;;;;4.29;85.46;97808.78;4170084;28;20040;-71
2022/02/15 03:18:19;;;;;;;4.10;3.00;;;;;;;4.28;85.36;97811.88;4169288;28;20037;-71
2022/02/15 03:20:19;;;;;;;6.47;3.25;;;;;;;4.26;85.66;97806.75;4170301;28;20036;-71
2022/02/15 03:22:22;;;;;;;5.22;3.00;;;;;;;4.27;85.77;97810.28;4170105;28;20123;-72
2022/02/15 03:24:22;;;;;;;5.03;2.83;;;;;;;4.25;85.22;97801.63;4170050;28;20131;-71
2022/02/15 03:26:22;;;;;;;4.82;3.97;;;;;;;4.23;85.37;97793.78;4169863;28;20714;-71
2022/02/15 03:28:23;;;;;;;4.18;2.90;;;;;;;4.25;85.14;97805.16;4169618;28;20076;-71
2022/02/15 03:30:23;;;;;;;5.80;3.30;;;;;;;4.26;85.12;97806.75;4169779;28;20065;-71
2022/02/15 03:32:23;;;;;;;5.53;3.25;;;;;;;4.25;85.37;97804.38;4170380;28;20045;-71
2022/02/15 03:34:24;;;;;;;6.68;3.08;;;;;;;4.25;85.01;97807.13;4170052;28;20445;-71
2022/02/15 03:36:24;;;;;;;5.10;3.05;;;;;;;4.25;85.43;97810.66;4170095;28;20464;-71
2022/02/15 03:38:25;;;;;;;4.95;2.58;;;;;;;4.23;85.35;97802.00;4169414;28;20055;-71
2022/02/15 03:43:04;;;;;;;6.03;3.03;;;;;;;4.21;85.70;97798.78;4169975;28;20103;-71
2022/02/15 03:45:05;;;;;;;7.78;3.38;;;;;;;4.22;86.32;97809.41;4170038;28;20098;-71
2022/02/15 03:47:06;;;;;;;5.35;3.13;;;;;;;4.21;86.11;97809.75;4169523;28;20045;-71
2022/02/15 03:49:11;;;;;;;6.72;3.20;;;;;;;4.17;86.27;97814.34;4169007;28;20056;-71
2022/02/15 03:51:11;;;;;;;5.03;2.90;;;;;;;4.16;86.66;97824.50;4169744;28;20409;-71
2022/02/15 03:53:12;;;;;;;5.75;2.90;;;;;;;4.18;86.42;97822.19;4169948;28;20049;-71
2022/02/15 03:55:13;;;;;;;5.78;3.35;;;;;;;4.18;86.48;97824.16;4169999;28;20949;-71
2022/02/15 03:57:13;;;;;;;4.30;2.90;;;;;;;4.20;85.97;97830.06;4168639;28;20044;-71
2022/02/15 03:59:14;;;;;;;4.68;3.03;;;;;;;4.19;86.24;97833.94;4168454;28;20128;-72
2022/02/15 04:01:14;;;;;;;4.45;3.33;;;;;;;4.18;86.21;97832.38;4167551;28;20048;-71
2022/02/15 04:03:14;;;;;;;6.70;3.05;;;;;;;4.17;86.24;97836.25;4169045;28;20143;-71
2022/02/15 04:05:15;;;;;;;4.22;2.97;;;;;;;4.15;86.67;97833.88;4168977;28;20091;-71
2022/02/15 04:07:15;;;;;;;6.30;3.15;;;;;;;4.11;86.85;97838.44;4167990;28;20049;-71
2022/02/15 04:09:15;;;;;;;6.57;2.95;;;;;;;4.09;86.86;97837.22;4167912;28;20300;-71
2022/02/15 04:11:16;;;;;;;5.10;3.50;;;;;;;4.07;86.92;97834.03;4167568;28;20354;-71
2022/02/15 04:13:17;;;;;;;5.28;2.63;;;;;;;4.09;86.91;97848.94;4168245;28;20041;-71
2022/02/15 04:15:18;;;;;;;5.80;2.88;;;;;;;4.11;87.04;97848.59;4168370;28;20434;-71
2022/02/15 04:17:19;;;;;;;6.00;3.30;;;;;;;4.11;87.18;97860.34;4168399;28;20067;-71
2022/02/15 04:19:19;;;;;;;7.18;3.75;;;;;;;4.08;86.72;97861.06;4168670;28;20106;-71
2022/02/15 04:21:23;;;;;;;5.68;3.03;;;;;;;4.06;86.95;97854.34;4168529;28;20064;-71
2022/02/15 04:23:24;;;;;;;6.57;3.50;;;;;;;4.05;87.11;97875.41;4168477;28;20069;-71
2022/02/15 04:25:24;;;;;;;6.03;3.20;;;;;;;4.02;87.26;97881.59;4168327;28;20052;-71
2022/02/15 04:27:24;;;;;;;4.75;3.17;;;;;;;4.00;88.05;97880.38;4167165;28;20060;-71
2022/02/15 04:29:26;;;;;;;4.90;3.10;;;;;;;3.95;87.84;97878.66;4168089;28;20083;-71
2022/02/15 04:31:26;;;;;;;7.15;3.60;;;;;;;3.94;88.02;97877.09;4168700;28;20037;-71
2022/02/15 04:33:26;;;;;;;6.43;3.47;;;;;;;3.92;88.15;97877.44;4168384;28;20330;-71
2022/02/15 04:35:27;;;;;;;5.88;3.03;;;;;;;3.91;88.21;97875.84;4167879;28;20128;-71
2022/02/15 04:37:27;;;;;;;12.15;4.57;;;;;;;3.95;89.09;97878.66;4166466;28;20332;-71
2022/02/15 04:39:27;;;;;;;7.38;3.88;;;;;;;4.00;88.39;97880.38;4167384;28;20280;-71
2022/02/15 04:41:27;;;;;;;6.80;3.65;;;;;;;4.05;88.58;97877.38;4167546;28;20392;-71
2022/02/15 04:43:28;;;;;;;5.68;4.50;;;;;;;4.08;88.44;97887.63;4168294;28;20049;-71
2022/02/15 04:45:29;;;;;;;6.15;3.97;;;;;;;4.11;88.51;97886.94;4168304;28;20056;-71
2022/02/15 04:47:29;;;;;;;7.30;4.82;;;;;;;4.13;88.45;97877.22;4167762;28;20045;-71
2022/02/15 04:49:30;;;;;;;8.43;4.53;;;;;;;4.18;88.41;97889.88;4167928;28;20044;-71
2022/02/15 04:51:30;;;;;;;7.15;3.67;;;;;;;4.23;88.23;97886.88;4168563;28;20048;-71
2022/02/15 04:53:30;;;;;;;6.65;3.45;;;;;;;4.23;87.95;97884.94;4168181;28;20045;-71
2022/02/15 04:55:31;;;;;;;7.35;3.55;;;;;;;4.21;87.81;97881.72;4167898;28;20416;-71
2022/02/15 04:57:31;;;;;;;6.88;3.58;;;;;;;4.22;87.73;97891.56;4167642;28;20042;-71
2022/02/15 04:59:31;;;;;;;6.47;3.80;;;;;;;4.22;87.32;97888.03;4168616;28;20146;-71
2022/02/15 05:01:32;;;;;;;9.30;3.80;;;;;;;4.17;87.90;97885.53;4171382;28;20442;-71
2022/02/15 05:03:33;;;;;;;5.55;3.67;;;;;;;4.14;87.76;97892.50;4171995;28;20118;-71
2022/02/15 05:05:33;;;;;;;6.70;3.85;;;;;;;4.16;88.00;97895.69;4172431;28;20045;-71
2022/02/15 05:07:35;;;;;;;7.28;4.35;;;;;;;4.16;87.68;97894.91;4171189;28;20098;-71
2022/02/15 05:09:35;;;;;;;8.53;3.87;;;;;;;4.17;88.06;97897.28;4171588;28;20059;-71
2022/02/15 05:11:36;;;;;;;7.72;4.10;;;;;;;4.23;88.27;97886.88;4171359;28;20314;-71
2022/02/15 05:13:36;;;;;;;7.40;4.07;;;;;;;4.25;87.52;97909.22;4171763;28;20443;-71
2022/02/15 05:15:38;;;;;;;9.27;4.10;;;;;;;4.30;87.33;97906.22;4171864;28;20075;-71
2022/02/15 05:17:44;;;;;;;8.33;4.10;;;;;;;4.33;87.96;97912.94;4170554;28;20212;-71
2022/02/15 05:19:44;;;;;;;6.13;3.60;;;;;;;4.27;87.20;97908.88;4171804;28;20275;-71
2022/02/15 05:21:44;;;;;;;8.80;3.97;;;;;;;4.23;87.63;97912.31;4171515;28;20131;-71
2022/02/15 05:23:45;;;;;;;5.97;4.38;;;;;;;4.21;87.90;97906.38;4171417;28;20098;-71
2022/02/15 05:25:45;;;;;;;6.38;4.40;;;;;;;4.10;88.61;97902.56;4172017;28;20048;-71
2022/02/15 05:27:45;;;;;;;10.60;4.60;;;;;;;4.02;89.32;97905.44;4170115;28;20263;-71
2022/02/15 05:29:46;;;;;;;7.47;3.80;;;;;;;3.92;89.81;97907.53;4169000;28;20088;-71
2022/02/15 05:31:47;;;;;;;8.57;4.60;;;;;;;3.88;89.70;97906.63;4170451;28;20049;-71
2022/02/15 05:33:48;;;;;;;5.97;3.70;;;;;;;3.81;89.24;97902.91;4170091;28;20044;-71
2022/02/15 05:35:48;;;;;;;9.55;4.45;;;;;;;3.76;89.39;97908.63;4170359;28;20267;-71
2022/02/15 05:37:49;;;;;;;8.30;4.63;;;;;;;3.71;89.91;97911.59;4169794;28;20092;-71
2022/02/15 05:39:49;;;;;;;8.40;3.53;;;;;;;3.66;90.42;97918.91;4169855;28;20072;-71
2022/02/15 05:41:49;;;;;;;6.95;4.18;;;;;;;3.60;90.90;97909.34;4170217;28;20132;-71
2022/02/15 05:43:50;;;;;;;8.40;4.18;;;;;;;3.58;91.41;97908.09;4170335;28;20198;-71
2022/02/15 05:45:50;;;;;;;5.35;3.65;;;;;;;3.53;91.65;97902.88;4170281;28;20504;-71
2022/02/15 05:47:50;;;;;;;6.78;4.30;;;;;;;3.44;91.76;97918.63;4169723;28;20048;-71
2022/02/15 05:52:09;;;;;;;8.63;4.95;;;;;;;3.34;91.78;97919.88;4171218;28;20056;-71
2022/02/15 05:54:10;;;;;;;10.80;5.53;;;;;;;3.26;91.59;97913.41;4170937;28;20032;-71
2022/02/15 05:56:10;;;;;;;7.32;5.60;;;;;;;3.26;91.28;97920.81;4171214;28;20033;-71
2022/02/15 05:58:10;;;;;;;8.70;5.85;;;;;;;3.23;90.97;97916.84;4170792;28;20036;-71
2022/02/15 06:00:14;;;;;;;8.70;4.72;;;;;;;3.22;89.97;97919.88;4171723;28;20021;-71
2022/02/15 06:02:15;;;;;;;13.27;5.63;;;;;;;3.17;89.94;97912.72;4170998;28;20098;-71
2022/02/15 06:04:15;;;;;;;9.57;5.72;;;;;;;3.12;89.95;97915.69;4171089;28;20451;-71
2022/02/15 06:06:15;;;;;;;10.77;5.60;;;;;;;3.03;90.02;97910.34;4171430;28;20478;-71
2022/02/15 06:08:15;;;;;;;7.70;4.90;;;;;;;2.90;89.88;97911.50;4114478;28;20041;-71
2022/02/15 06:10:16;;;;;;;10.05;4.78;;;;;;;2.80;89.70;97912.72;4170328;28;20041;-71
2022/02/15 06:12:16;;;;;;;8.75;5.43;;;;;;;2.67;90.36;97916.59;4170543;28;20545;-71
2022/02/15 06:14:17;;;;;;;10.45;5.38;;;;;;;2.60;91.35;97918.28;4171310;28;20393;-71
2022/02/15 06:16:17;;;;;;;10.63;5.57;;;;;;;2.61;91.74;97917.16;4170596;28;20044;-71
2022/02/15 06:18:18;;;;;;;11.55;6.72;;;;;;;2.49;91.02;97912.47;4170432;28;20315;-71
2022/02/15 06:20:18;;;;;;;10.40;5.55;;;;;;;2.46;91.70;97919.38;4171086;28;20304;-71
2022/02/15 06:22:18;;;;;;;11.60;5.10;;;;;;;2.48;91.59;97928.06;4170400;28;20349;-71
2022/02/15 06:24:20;;;;;;;11.32;5.18;;;;;;;2.47;91.22;97912.78;4171043;28;20029;-71
2022/02/15 06:26:21;;;;;;;8.45;4.93;;;;;;;2.47;90.50;97923.72;4171140;28;20043;-71
2022/02/15 06:28:21;;;;;;;8.38;4.95;;;;;;;2.43;90.25;97925.53;4170099;28;20485;-71
2022/02/15 06:30:21;;;;;;;12.90;5.22;;;;;;;2.39;90.89;97932.00;4170949;28;20372;-71
2022/02/15 06:32:22;;;;;;;10.15;4.88;;;;;;;2.32;90.30;97931.75;4170810;28;20041;-71
2022/02/15 06:34:24;;;;;;;9.93;5.15;;;;;;;2.18;91.28;97938.31;4169547;28;20063;-71
2022/02/15 06:36:24;;;;;;;12.07;5.50;;;;;;;2.18;93.17;97932.84;4170274;28;20485;-71
2022/02/15 06:38:24;;;;;;;9.93;5.20;;;;;;;2.11;91.17;97943.50;4170070;28;20060;-71
2022/02/15 06:40:25;;;;;;;8.13;4.88;;;;;;;1.93;92.94;97947.53;4170846;28;20087;-71
2022/02/15 06:42:25;;;;;;;10.90;5.40;;;;;;;1.82;95.13;97940.88;4170366;28;20052;-71
2022/02/15 06:44:26;;;;;;;8.82;5.43;;;;;;;1.83;94.80;97951.47;4171446;28;20111;-71
2022/02/15 06:46:26;;;;;;;12.07;6.45;;;;;;;1.80;93.95;97943.16;4170312;28;20045;-71
2022/02/15 06:48:27;;;;;;;9.18;5.13;;;;;;;1.75;93.74;97943.38;4170685;28;20247;-71
2022/02/15 06:50:27;;;;;;;9.13;4.80;;;;;;;1.75;94.11;97941.44;4170518;28;20056;-71
2022/02/15 06:52:28;;;;;;;9.75;5.65;;;;;;;1.74;93.33;97944.47;4169965;28;20056;-72
2022/02/15 06:54:29;;;;;;;9.63;5.30;;;;;;;1.66;93.82;97952.41;4171518;28;20120;-71
2022/02/15 06:56:29;;;;;;;10.95;6.15;;;;;;;1.71;94.68;97958.78;4169427;28;20048;-71
2022/02/15 06:58:29;;;;;;;11.43;5.32;;;;;;;1.72;94.12;97949.47;4169708;28;20060;-71
2022/02/15 07:00:30;;;;;;;10.65;5.18;;;;;;;1.77;93.88;97958.25;4171405;28;20049;-71
2022/02/15 07:02:30;;;;;;;8.30;4.82;;;;;;;1.81;92.83;97967.34;4170154;28;20041;-71
2022/02/15 07:04:31;;;;;;;10.98;5.93;;;;;;;1.81;93.31;97963.84;4170287;28;20067;-71
2022/02/15 07:06:31;;;;;;;9.18;5.88;;;;;;;1.79;92.57;97977.81;4169514;28;20126;-71
2022/02/15 07:08:31;;;;;;;8.68;4.80;;;;;;;1.70;93.61;97982.53;4170395;28;20118;-71
2022/02/15 07:10:32;;;;;;;10.27;5.10;;;;;;;1.68;94.64;97990.25;4169202;28;20048;-71
2022/02/15 07:12:33;;;;;;;9.00;4.82;;;;;;;1.67;94.80;97991.38;4169991;28;20053;-71
2022/02/15 07:14:34;;;;;;;10.35;4.88;;;;;;;1.72;94.04;97999.34;4170270;28;20105;-71
2022/02/15 07:16:35;;;;;;;8.20;4.07;;;;;;;1.77;94.54;97995.66;4170669;28;20045;-71
2022/02/15 07:18:35;;;;;;;8.75;5.15;;;;;;;1.81;93.19;98010.19;4169880;28;20049;-71
2022/02/15 07:20:35;;;;;;;11.75;4.63;;;;;;;1.81;92.91;98004.75;4170790;28;20679;-71
2022/02/15 07:22:36;;;;;;;8.48;5.03;;;;;;;1.87;92.62;98012.41;4169318;28;20088;-71
2022/02/15 07:24:39;;;;;;;8.55;4.45;;;;;;;1.88;92.42;98014.00;4169499;28;20417;-71
2022/02/15 07:26:39;;;;;;;7.13;4.70;;;;;;;1.90;93.01;98016.38;4169194;28;20612;-71
2022/02/15 07:28:40;;;;;;;9.57;5.20;;;;;;;1.91;94.39;98020.75;4170122;28;20872;-71
2022/02/15 07:30:40;;;;;;;12.27;5.97;;;;;;;2.00;92.62;98023.41;4169441;28;20045;-71
2022/02/15 07:32:40;;;;;;;12.55;7.10;;;;;;;2.02;92.65;98021.94;4168214;28;20057;-71
2022/02/15 07:34:41;;;;;;;10.75;6.22;;;;;;;2.10;93.46;98023.78;4169655;28;20057;-71
2022/02/15 07:36:41;;;;;;;11.70;6.38;;;;;;;2.13;91.85;98022.31;4168742;28;20081;-71
2022/02/15 07:38:41;;;;;;;9.85;6.63;;;;;;;2.17;92.32;98026.78;4169801;28;20075;-71
2022/02/15 07:40:41;;;;;;;9.90;6.10;;;;;;;2.22;92.25;98023.03;4169238;28;20041;-71
2022/02/15 07:42:42;;;;;;;8.63;5.68;;;;;;;2.29;91.87;98015.13;4169660;28;20136;-71
2022/02/15 07:44:42;;;;;;;13.23;6.20;;;;;;;2.35;92.15;98016.53;4169805;28;20041;-71
2022/02/15 07:46:46;;;;;;;8.10;5.47;;;;;;;2.39;92.65;98020.16;4168246;28;20463;-71
2022/02/15 07:48:46;;;;;;;11.88;5.75;;;;;;;2.44;92.40;98022.69;4170850;28;20037;-71
2022/02/15 07:50:47;;;;;;;11.10;5.70;;;;;;;2.51;92.56;98019.44;4169266;28;20672;-71
2022/02/15 07:52:57;;;;;;;14.13;6.45;;;;;;;2.59;93.29;98024.00;4170259;28;20460;-71
2022/02/15 07:54:57;;;;;;;9.80;5.60;;;;;;;2.68;91.66;98026.66;4169424;28;20066;-71
2022/02/15 07:56:58;;;;;;;11.43;6.53;;;;;;;2.72;91.32;98022.88;4169028;28;20140;-71
2022/02/15 07:58:58;;;;;;;15.05;6.80;;;;;;;2.75;91.10;98024.97;4170799;28;20984;-72
2022/02/15 08:00:58;;;;;;;13.38;6.57;;;;;;;2.77;91.37;98022.69;4169211;28;20067;-71
2022/02/15 08:02:59;;;;;;;9.27;5.72;;;;;;;2.84;90.83;98027.59;4169457;28;20390;-71
2022/02/15 08:05:00;;;;;;;9.07;6.28;;;;;;;2.90;89.49;98017.25;4168907;28;20049;-71
2022/02/15 08:07:03;;;;;;;8.63;5.53;;;;;;;2.92;89.83;98023.97;4168703;28;20047;-71
2022/02/15 08:09:03;;;;;;;11.55;5.80;;;;;;;2.97;89.72;98028.41;4169169;28;20473;-71
2022/02/15 08:11:04;;;;;;;11.07;5.63;;;;;;;3.09;90.60;98036.66;4169326;28;20045;-71
2022/02/15 08:13:05;;;;;;;8.40;5.50;;;;;;;3.28;94.30;98031.41;4169570;28;20049;-71
2022/02/15 08:15:06;;;;;;;8.82;5.05;;;;;;;3.46;94.48;98023.78;4168313;28;20045;-71
2022/02/15 08:17:06;;;;;;;7.28;4.32;;;;;;;3.63;94.34;98039.97;4168742;28;20152;-71
2022/02/15 08:19:07;;;;;;;6.18;3.90;;;;;;;3.89;94.45;98036.09;4169017;28;20179;-71
2022/02/15 08:21:08;;;;;;;8.05;4.47;;;;;;;4.23;93.72;98042.97;4169730;28;20118;-71
2022/02/15 08:23:12;;;;;;;8.05;4.43;;;;;;;4.45;91.07;98033.41;4169349;28;20080;-71
2022/02/15 08:25:12;;;;;;;7.85;4.25;;;;;;;4.67;90.72;98048.50;4168980;28;20037;-71
2022/02/15 08:27:14;;;;;;;6.57;4.05;;;;;;;4.80;89.93;98041.84;4168715;28;20480;-71
2022/02/15 08:29:14;;;;;;;9.45;4.28;;;;;;;4.97;88.16;98051.69;4170332;28;20037;-71
2022/02/15 08:31:14;;;;;;;9.30;4.00;;;;;;;5.05;87.38;98054.25;4169435;28;20122;-71
2022/02/15 08:33:15;;;;;;;5.45;3.92;;;;;;;5.14;87.00;98051.34;4168884;28;20524;-71
2022/02/15 08:35:17;;;;;;;6.13;4.18;;;;;;;5.20;85.26;98043.63;4171553;28;20068;-71
2022/02/15 08:37:17;;;;;;;8.77;4.27;;;;;;;5.20;86.70;98047.16;4171699;28;20492;-71
2022/02/15 08:39:18;;;;;;;7.65;4.72;;;;;;;5.20;86.96;98038.16;4172369;28;20382;-71
2022/02/15 08:41:18;;;;;;;6.07;3.83;;;;;;;5.18;84.79;98034.97;4171947;28;20041;-71
2022/02/15 08:43:18;;;;;;;12.45;4.50;;;;;;;5.19;86.98;98039.31;4172545;28;20083;-71
2022/02/15 08:45:19;;;;;;;6.18;4.28;;;;;;;5.27;87.88;98041.88;4170580;28;20047;-71
2022/02/15 08:47:24;;;;;;;5.50;4.35;;;;;;;5.35;86.74;98038.16;4171073;28;20044;-71
2022/02/15 08:49:24;;;;;;;6.32;4.70;;;;;;;5.36;86.47;98031.50;4172252;28;20073;-71
2022/02/15 08:51:25;;;;;;;6.55;4.13;;;;;;;5.34;85.61;98033.03;4172292;28;20080;-71
2022/02/15 08:53:25;;;;;;;7.57;4.55;;;;;;;5.45;85.99;98042.31;4172299;28;20077;-71
2022/02/15 08:55:26;;;;;;;7.15;4.30;;;;;;;5.57;85.21;98041.44;4172019;28;20424;-71
2022/02/15 08:57:26;;;;;;;5.95;3.83;;;;;;;5.71;84.26;98036.28;4171900;28;20041;-71
2022/02/15 08:59:26;;;;;;;5.88;3.85;;;;;;;5.89;82.90;98039.44;4171843;28;20092;-71
2022/02/15 09:01:27;;;;;;;6.47;4.72;;;;;;;6.01;82.57;98044.84;4171019;28;20041;-71
2022/02/15 09:03:27;;;;;;;5.25;3.63;;;;;;;6.12;81.97;98040.38;4171739;28;20470;-71
2022/02/15 09:05:27;;;;;;;6.55;3.88;;;;;;;6.27;81.98;98043.41;4172108;28;20485;-71
2022/02/15 09:07:28;;;;;;;5.38;3.70;;;;;;;6.29;82.20;98050.16;4172019;28;20041;-71
2022/02/15 09:09:28;;;;;;;6.53;4.18;;;;;;;6.35;81.08;98050.66;4171831;28;20045;-71
2022/02/15 09:11:28;;;;;;;4.40;3.55;;;;;;;6.36;80.63;98055.78;4172103;28;20049;-71
2022/02/15 09:13:29;;;;;;;5.78;3.35;;;;;;;6.44;81.47;98060.28;4172045;28;20314;-71
2022/02/15 09:15:30;;;;;;;5.22;2.90;;;;;;;6.47;79.96;98064.28;4171400;28;20124;-71
2022/02/15 09:17:36;;;;;;;4.18;2.20;;;;;;;6.39;79.57;98062.53;4170885;28;20045;-71
2022/02/15 09:19:37;;;;;;;5.05;3.40;;;;;;;6.38;80.19;98061.75;4139639;28;20065;-71
2022/02/15 09:21:39;;;;;;;5.00;2.47;;;;;;;6.30;81.04;98071.00;4169027;28;20041;-71
2022/02/15 09:23:39;;;;;;;5.13;2.60;;;;;;;6.29;81.40;98061.16;4172604;28;20098;-71
2022/02/15 09:25:39;;;;;;;2.85;2.15;;;;;;;6.25;81.92;98078.72;4171835;28;20587;-71
2022/02/15 09:27:40;;;;;;;2.72;1.85;;;;;;;6.27;82.20;98081.88;4171292;28;20044;-71
2022/02/15 09:29:40;;;;;;;2.38;1.80;;;;;;;6.27;82.06;98073.63;4171001;28;20049;-71
2022/02/15 09:31:40;;;;;;;1.90;1.60;;;;;;;6.32;81.38;98078.88;4171594;28;20838;-71
2022/02/15 09:33:41;;;;;;;1.98;1.60;;;;;;;6.28;81.69;98069.72;4172959;28;20160;-71
2022/02/15 09:35:42;;;;;;;1.80;1.50;;;;;;;6.28;81.69;98080.72;4171704;28;20152;-71
2022/02/15 09:37:42;;;;;;;2.10;1.40;;;;;;;6.33;80.76;98088.69;4171135;28;20151;-71
2022/02/15 09:39:43;;;;;;;2.00;1.25;;;;;;;6.34;80.23;98084.78;4171767;28;20049;-71